sensor_id;sensor_type;location;lat;lon;timestamp;temperature;humidity
22852;DHT22;11592;45.460;9.240;2022-08-19T00:02:00;22.80;99.90
22852;DHT22;11592;45.460;9.240;2022-08-19T00:04:33;22.80;99.90
22852;DHT22;11592;45.460;9.240;2022-08-19T00:07:02;22.80;99.90
22852;DHT22;11592;45.460;9.240;2022-08-19T00:09:29;22.80;99.90
22852;DHT22;11592;45.460;9.240;2022-08-19T00:11:57;22.80;99.90
22852;DHT22;11592;45.460;9.240;2022-08-19T00:14:26;22.80;99.90
22852;DHT22;11592;45.460;9.240;2022-08-19T00:16:54;22.80;99.90
22852;DHT22;11592;45.460;9.240;2022-08-19T00:19:22;22.80;99.90
22852;DHT22;11592;45.460;9.240;2022-08-19T00:24:16;22.70;99.90
22852;DHT22;11592;45.460;9.240;2022-08-19T00:26:44;22.70;99.90
22852;DHT22;11592;45.460;9.240;2022-08-19T00:29:14;22.80;99.90
22852;DHT22;11592;45.460;9.240;2022-08-19T00:31:42;22.80;99.90
22852;DHT22;11592;45.460;9.240;2022-08-19T00:34:10;22.70;99.90
22852;DHT22;11592;45.460;9.240;2022-08-19T00:36:38;22.80;99.90
22852;DHT22;11592;45.460;9.240;2022-08-19T00:39:05;22.70;99.90
22852;DHT22;11592;45.460;9.240;2022-08-19T00:41:33;22.70;99.90
22852;DHT22;11592;45.460;9.240;2022-08-19T00:44:21;22.80;99.90
22852;DHT22;11592;45.460;9.240;2022-08-19T00:46:54;22.70;99.90
22852;DHT22;11592;45.460;9.240;2022-08-19T00:49:47;22.70;99.90
22852;DHT22;11592;45.460;9.240;2022-08-19T00:52:32;22.70;99.90
22852;DHT22;11592;45.460;9.240;2022-08-19T00:55:00;22.70;99.90
22852;DHT22;11592;45.460;9.240;2022-08-19T00:57:41;22.70;99.90
22852;DHT22;11592;45.460;9.240;2022-08-19T01:00:14;22.60;99.90
22852;DHT22;11592;45.460;9.240;2022-08-19T01:02:42;22.60;99.90
22852;DHT22;11592;45.460;9.240;2022-08-19T01:05:17;22.40;99.90
22852;DHT22;11592;45.460;9.240;2022-08-19T01:07:45;22.40;99.90
22852;DHT22;11592;45.460;9.240;2022-08-19T01:10:15;22.40;99.90
22852;DHT22;11592;45.460;9.240;2022-08-19T01:12:42;22.30;99.90
22852;DHT22;11592;45.460;9.240;2022-08-19T01:15:11;22.20;99.90
22852;DHT22;11592;45.460;9.240;2022-08-19T01:17:40;22.20;99.90
22852;DHT22;11592;45.460;9.240;2022-08-19T01:20:13;22.10;99.90
22852;DHT22;11592;45.460;9.240;2022-08-19T01:22:45;22.10;99.90
22852;DHT22;11592;45.460;9.240;2022-08-19T01:25:15;22.10;99.90
22852;DHT22;11592;45.460;9.240;2022-08-19T01:27:45;22.10;99.90
22852;DHT22;11592;45.460;9.240;2022-08-19T01:30:25;22.10;99.90
22852;DHT22;11592;45.460;9.240;2022-08-19T01:32:53;22.10;99.90
22852;DHT22;11592;45.460;9.240;2022-08-19T01:35:22;22.10;99.90
22852;DHT22;11592;45.460;9.240;2022-08-19T01:38:05;22.20;99.90
22852;DHT22;11592;45.460;9.240;2022-08-19T01:40:36;22.30;99.90
22852;DHT22;11592;45.460;9.240;2022-08-19T01:43:04;22.30;99.90
22852;DHT22;11592;45.460;9.240;2022-08-19T01:45:33;22.30;99.90
22852;DHT22;11592;45.460;9.240;2022-08-19T01:48:00;22.30;99.90
22852;DHT22;11592;45.460;9.240;2022-08-19T01:50:32;22.30;99.90
22852;DHT22;11592;45.460;9.240;2022-08-19T01:52:59;22.20;99.90
22852;DHT22;11592;45.460;9.240;2022-08-19T01:55:37;22.20;99.90
22852;DHT22;11592;45.460;9.240;2022-08-19T01:58:11;22.20;99.90
22852;DHT22;11592;45.460;9.240;2022-08-19T02:00:39;22.20;99.90
22852;DHT22;11592;45.460;9.240;2022-08-19T02:03:05;22.20;99.90
22852;DHT22;11592;45.460;9.240;2022-08-19T02:05:33;22.30;99.90
22852;DHT22;11592;45.460;9.240;2022-08-19T02:10:26;22.20;99.90
22852;DHT22;11592;45.460;9.240;2022-08-19T02:12:53;22.20;99.90
22852;DHT22;11592;45.460;9.240;2022-08-19T02:15:22;22.20;99.90
22852;DHT22;11592;45.460;9.240;2022-08-19T02:17:49;22.30;99.90
22852;DHT22;11592;45.460;9.240;2022-08-19T02:20:15;22.30;99.90
22852;DHT22;11592;45.460;9.240;2022-08-19T02:22:43;22.30;99.90
22852;DHT22;11592;45.460;9.240;2022-08-19T02:25:12;22.10;99.90
22852;DHT22;11592;45.460;9.240;2022-08-19T02:27:40;22.00;99.90
22852;DHT22;11592;45.460;9.240;2022-08-19T02:30:11;22.00;99.90
22852;DHT22;11592;45.460;9.240;2022-08-19T02:32:40;21.90;99.90
22852;DHT22;11592;45.460;9.240;2022-08-19T02:35:12;21.80;99.90
22852;DHT22;11592;45.460;9.240;2022-08-19T02:40:32;22.20;99.90
22852;DHT22;11592;45.460;9.240;2022-08-19T02:43:02;22.20;99.90
22852;DHT22;11592;45.460;9.240;2022-08-19T02:45:34;22.20;99.90
22852;DHT22;11592;45.460;9.240;2022-08-19T02:50:48;21.90;99.90
22852;DHT22;11592;45.460;9.240;2022-08-19T02:53:23;22.00;99.90
22852;DHT22;11592;45.460;9.240;2022-08-19T02:58:19;22.20;99.90
22852;DHT22;11592;45.460;9.240;2022-08-19T03:00:50;22.20;99.90
22852;DHT22;11592;45.460;9.240;2022-08-19T03:03:18;22.20;99.90
22852;DHT22;11592;45.460;9.240;2022-08-19T03:05:45;22.30;99.90
22852;DHT22;11592;45.460;9.240;2022-08-19T03:08:21;22.20;99.90
22852;DHT22;11592;45.460;9.240;2022-08-19T03:10:48;22.30;99.90
22852;DHT22;11592;45.460;9.240;2022-08-19T03:13:17;22.30;99.90
22852;DHT22;11592;45.460;9.240;2022-08-19T03:15:46;22.30;99.90
22852;DHT22;11592;45.460;9.240;2022-08-19T03:18:14;22.30;99.90
22852;DHT22;11592;45.460;9.240;2022-08-19T03:20:45;22.10;99.90
22852;DHT22;11592;45.460;9.240;2022-08-19T03:23:13;22.10;99.90
22852;DHT22;11592;45.460;9.240;2022-08-19T03:25:42;22.20;99.90
22852;DHT22;11592;45.460;9.240;2022-08-19T03:28:11;22.20;99.90
22852;DHT22;11592;45.460;9.240;2022-08-19T03:30:39;22.20;99.90
22852;DHT22;11592;45.460;9.240;2022-08-19T03:33:10;22.20;99.90
22852;DHT22;11592;45.460;9.240;2022-08-19T03:38:11;22.20;99.90
22852;DHT22;11592;45.460;9.240;2022-08-19T03:40:38;22.20;99.90
22852;DHT22;11592;45.460;9.240;2022-08-19T03:45:32;22.30;99.90
22852;DHT22;11592;45.460;9.240;2022-08-19T03:47:59;22.30;99.90
22852;DHT22;11592;45.460;9.240;2022-08-19T03:52:53;22.30;99.90
22852;DHT22;11592;45.460;9.240;2022-08-19T03:57:47;22.20;99.90
22852;DHT22;11592;45.460;9.240;2022-08-19T04:00:15;22.30;99.90
22852;DHT22;11592;45.460;9.240;2022-08-19T04:02:42;22.30;99.90
22852;DHT22;11592;45.460;9.240;2022-08-19T04:05:28;22.10;99.90
22852;DHT22;11592;45.460;9.240;2022-08-19T04:07:55;21.70;99.90
22852;DHT22;11592;45.460;9.240;2022-08-19T04:10:25;21.70;99.90
22852;DHT22;11592;45.460;9.240;2022-08-19T04:12:51;21.80;99.90
22852;DHT22;11592;45.460;9.240;2022-08-19T04:15:19;21.80;99.90
22852;DHT22;11592;45.460;9.240;2022-08-19T04:20:13;21.60;99.90
22852;DHT22;11592;45.460;9.240;2022-08-19T04:22:39;21.50;99.90
22852;DHT22;11592;45.460;9.240;2022-08-19T04:25:06;21.40;99.90
22852;DHT22;11592;45.460;9.240;2022-08-19T04:30:00;21.20;99.90
22852;DHT22;11592;45.460;9.240;2022-08-19T04:32:27;21.20;99.90
22852;DHT22;11592;45.460;9.240;2022-08-19T04:34:54;21.20;99.90
22852;DHT22;11592;45.460;9.240;2022-08-19T04:37:43;21.40;99.90
22852;DHT22;11592;45.460;9.240;2022-08-19T04:42:56;21.30;99.90
22852;DHT22;11592;45.460;9.240;2022-08-19T04:45:22;21.30;99.90
22852;DHT22;11592;45.460;9.240;2022-08-19T04:47:49;21.10;99.90
22852;DHT22;11592;45.460;9.240;2022-08-19T04:50:26;21.00;99.90
22852;DHT22;11592;45.460;9.240;2022-08-19T04:52:53;21.00;99.90
22852;DHT22;11592;45.460;9.240;2022-08-19T04:55:20;21.00;99.90
22852;DHT22;11592;45.460;9.240;2022-08-19T04:57:47;20.90;99.90
22852;DHT22;11592;45.460;9.240;2022-08-19T05:00:14;20.80;99.90
22852;DHT22;11592;45.460;9.240;2022-08-19T05:02:40;20.80;99.90
22852;DHT22;11592;45.460;9.240;2022-08-19T05:05:08;21.00;99.90
22852;DHT22;11592;45.460;9.240;2022-08-19T05:07:35;21.20;99.90
22852;DHT22;11592;45.460;9.240;2022-08-19T05:10:04;21.20;99.90
22852;DHT22;11592;45.460;9.240;2022-08-19T05:12:31;21.30;99.90
22852;DHT22;11592;45.460;9.240;2022-08-19T05:14:59;21.40;99.90
22852;DHT22;11592;45.460;9.240;2022-08-19T05:17:26;21.40;99.90
22852;DHT22;11592;45.460;9.240;2022-08-19T05:22:45;21.50;99.90
22852;DHT22;11592;45.460;9.240;2022-08-19T05:25:17;21.50;99.90
22852;DHT22;11592;45.460;9.240;2022-08-19T05:27:45;21.40;99.90
22852;DHT22;11592;45.460;9.240;2022-08-19T05:30:12;21.50;99.90
22852;DHT22;11592;45.460;9.240;2022-08-19T05:32:39;21.50;99.90
22852;DHT22;11592;45.460;9.240;2022-08-19T05:35:07;21.40;99.90
22852;DHT22;11592;45.460;9.240;2022-08-19T05:37:34;21.50;99.90
22852;DHT22;11592;45.460;9.240;2022-08-19T05:42:29;21.40;99.90
22852;DHT22;11592;45.460;9.240;2022-08-19T05:44:56;21.40;99.90
22852;DHT22;11592;45.460;9.240;2022-08-19T05:47:23;21.30;99.90
22852;DHT22;11592;45.460;9.240;2022-08-19T05:52:19;21.50;99.90
22852;DHT22;11592;45.460;9.240;2022-08-19T05:54:53;21.50;99.90
22852;DHT22;11592;45.460;9.240;2022-08-19T05:57:23;21.60;99.90
22852;DHT22;11592;45.460;9.240;2022-08-19T05:59:50;21.60;99.90
22852;DHT22;11592;45.460;9.240;2022-08-19T06:02:27;21.70;99.90
22852;DHT22;11592;45.460;9.240;2022-08-19T06:04:55;21.70;99.90
22852;DHT22;11592;45.460;9.240;2022-08-19T06:09:49;21.70;99.90
22852;DHT22;11592;45.460;9.240;2022-08-19T06:12:28;21.80;99.90
22852;DHT22;11592;45.460;9.240;2022-08-19T06:14:56;21.80;99.90
22852;DHT22;11592;45.460;9.240;2022-08-19T06:19:57;21.80;99.90
22852;DHT22;11592;45.460;9.240;2022-08-19T06:24:52;21.80;99.90
22852;DHT22;11592;45.460;9.240;2022-08-19T06:27:21;21.70;99.90
22852;DHT22;11592;45.460;9.240;2022-08-19T06:29:48;21.60;99.90
22852;DHT22;11592;45.460;9.240;2022-08-19T06:32:17;21.60;99.90
22852;DHT22;11592;45.460;9.240;2022-08-19T06:34:45;21.50;99.90
22852;DHT22;11592;45.460;9.240;2022-08-19T06:37:12;21.50;99.90
22852;DHT22;11592;45.460;9.240;2022-08-19T06:39:41;21.40;99.90
22852;DHT22;11592;45.460;9.240;2022-08-19T06:42:08;21.30;99.90
22852;DHT22;11592;45.460;9.240;2022-08-19T06:44:39;21.40;99.90
22852;DHT22;11592;45.460;9.240;2022-08-19T06:47:12;21.60;99.90
22852;DHT22;11592;45.460;9.240;2022-08-19T06:49:39;21.60;99.90
22852;DHT22;11592;45.460;9.240;2022-08-19T06:52:07;21.60;99.90
22852;DHT22;11592;45.460;9.240;2022-08-19T06:57:22;21.60;99.90
22852;DHT22;11592;45.460;9.240;2022-08-19T06:59:49;21.60;99.90
22852;DHT22;11592;45.460;9.240;2022-08-19T07:02:16;21.50;99.90
22852;DHT22;11592;45.460;9.240;2022-08-19T07:04:43;21.60;99.90
22852;DHT22;11592;45.460;9.240;2022-08-19T07:07:14;21.60;99.90
22852;DHT22;11592;45.460;9.240;2022-08-19T07:09:47;21.60;99.90
22852;DHT22;11592;45.460;9.240;2022-08-19T07:12:29;21.80;99.90
22852;DHT22;11592;45.460;9.240;2022-08-19T07:15:04;22.00;99.90
22852;DHT22;11592;45.460;9.240;2022-08-19T07:17:31;22.10;99.90
22852;DHT22;11592;45.460;9.240;2022-08-19T07:22:33;22.30;99.90
22852;DHT22;11592;45.460;9.240;2022-08-19T07:25:01;22.50;99.90
22852;DHT22;11592;45.460;9.240;2022-08-19T07:27:30;22.60;99.90
22852;DHT22;11592;45.460;9.240;2022-08-19T07:29:59;22.60;99.90
22852;DHT22;11592;45.460;9.240;2022-08-19T07:32:26;22.60;99.90
22852;DHT22;11592;45.460;9.240;2022-08-19T07:34:54;22.70;99.90
22852;DHT22;11592;45.460;9.240;2022-08-19T07:37:23;22.80;99.90
22852;DHT22;11592;45.460;9.240;2022-08-19T07:42:25;23.10;99.90
22852;DHT22;11592;45.460;9.240;2022-08-19T07:44:53;23.10;99.90
22852;DHT22;11592;45.460;9.240;2022-08-19T07:47:20;23.10;99.90
22852;DHT22;11592;45.460;9.240;2022-08-19T07:50:09;23.00;99.90
22852;DHT22;11592;45.460;9.240;2022-08-19T07:52:38;23.00;99.90
22852;DHT22;11592;45.460;9.240;2022-08-19T07:55:15;23.10;99.90
22852;DHT22;11592;45.460;9.240;2022-08-19T07:58:02;23.10;99.90
22852;DHT22;11592;45.460;9.240;2022-08-19T08:00:31;23.10;99.90
22852;DHT22;11592;45.460;9.240;2022-08-19T08:02:58;23.00;99.90
22852;DHT22;11592;45.460;9.240;2022-08-19T08:05:25;22.80;99.90
22852;DHT22;11592;45.460;9.240;2022-08-19T08:08:11;23.00;99.90
22852;DHT22;11592;45.460;9.240;2022-08-19T08:10:58;23.20;99.90
22852;DHT22;11592;45.460;9.240;2022-08-19T08:13:25;23.20;99.90
22852;DHT22;11592;45.460;9.240;2022-08-19T08:15:53;23.30;99.90
22852;DHT22;11592;45.460;9.240;2022-08-19T08:18:21;23.40;99.90
22852;DHT22;11592;45.460;9.240;2022-08-19T08:20:54;23.50;99.90
22852;DHT22;11592;45.460;9.240;2022-08-19T08:23:21;23.80;99.90
22852;DHT22;11592;45.460;9.240;2022-08-19T08:25:56;23.80;99.90
22852;DHT22;11592;45.460;9.240;2022-08-19T08:28:25;23.90;99.90
22852;DHT22;11592;45.460;9.240;2022-08-19T08:30:56;24.00;99.90
22852;DHT22;11592;45.460;9.240;2022-08-19T08:33:25;24.10;99.90
22852;DHT22;11592;45.460;9.240;2022-08-19T08:36:10;24.10;99.90
22852;DHT22;11592;45.460;9.240;2022-08-19T08:38:38;24.10;99.90
22852;DHT22;11592;45.460;9.240;2022-08-19T08:41:13;24.20;99.90
22852;DHT22;11592;45.460;9.240;2022-08-19T08:43:48;24.20;99.90
22852;DHT22;11592;45.460;9.240;2022-08-19T08:46:19;24.20;99.90
22852;DHT22;11592;45.460;9.240;2022-08-19T08:51:44;24.60;99.90
22852;DHT22;11592;45.460;9.240;2022-08-19T08:54:29;24.70;99.90
22852;DHT22;11592;45.460;9.240;2022-08-19T08:56:59;24.60;99.90
22852;DHT22;11592;45.460;9.240;2022-08-19T08:59:36;24.50;99.90
22852;DHT22;11592;45.460;9.240;2022-08-19T09:02:04;24.70;99.90
22852;DHT22;11592;45.460;9.240;2022-08-19T09:04:31;24.80;99.90
22852;DHT22;11592;45.460;9.240;2022-08-19T09:07:07;24.90;99.90
22852;DHT22;11592;45.460;9.240;2022-08-19T09:10:10;24.90;99.90
22852;DHT22;11592;45.460;9.240;2022-08-19T09:12:57;25.00;99.90
22852;DHT22;11592;45.460;9.240;2022-08-19T09:15:32;25.10;99.90
22852;DHT22;11592;45.460;9.240;2022-08-19T09:18:03;25.20;99.90
22852;DHT22;11592;45.460;9.240;2022-08-19T09:20:33;25.30;99.90
22852;DHT22;11592;45.460;9.240;2022-08-19T09:23:00;25.50;99.90
22852;DHT22;11592;45.460;9.240;2022-08-19T09:25:27;25.40;99.90
22852;DHT22;11592;45.460;9.240;2022-08-19T09:27:55;25.40;99.90
22852;DHT22;11592;45.460;9.240;2022-08-19T09:30:32;25.30;99.90
22852;DHT22;11592;45.460;9.240;2022-08-19T09:33:00;25.50;99.90
22852;DHT22;11592;45.460;9.240;2022-08-19T09:35:28;25.70;99.90
22852;DHT22;11592;45.460;9.240;2022-08-19T09:37:57;25.80;99.90
22852;DHT22;11592;45.460;9.240;2022-08-19T09:40:26;25.90;99.90
22852;DHT22;11592;45.460;9.240;2022-08-19T09:42:57;25.90;99.90
22852;DHT22;11592;45.460;9.240;2022-08-19T09:45:26;25.70;99.90
22852;DHT22;11592;45.460;9.240;2022-08-19T09:47:53;25.40;99.90
22852;DHT22;11592;45.460;9.240;2022-08-19T09:50:22;25.50;99.90
22852;DHT22;11592;45.460;9.240;2022-08-19T09:52:49;25.60;99.90
22852;DHT22;11592;45.460;9.240;2022-08-19T09:55:23;25.80;99.90
22852;DHT22;11592;45.460;9.240;2022-08-19T09:57:58;25.80;99.90
22852;DHT22;11592;45.460;9.240;2022-08-19T10:00:25;26.00;99.90
22852;DHT22;11592;45.460;9.240;2022-08-19T10:02:53;26.10;99.90
22852;DHT22;11592;45.460;9.240;2022-08-19T10:05:19;26.20;99.90
22852;DHT22;11592;45.460;9.240;2022-08-19T10:08:08;26.10;99.90
22852;DHT22;11592;45.460;9.240;2022-08-19T10:10:43;26.20;99.90
22852;DHT22;11592;45.460;9.240;2022-08-19T10:13:14;26.30;99.90
22852;DHT22;11592;45.460;9.240;2022-08-19T10:15:42;26.30;99.90
22852;DHT22;11592;45.460;9.240;2022-08-19T10:18:14;26.40;99.90
22852;DHT22;11592;45.460;9.240;2022-08-19T10:20:48;26.50;99.90
22852;DHT22;11592;45.460;9.240;2022-08-19T10:23:19;26.40;99.90
22852;DHT22;11592;45.460;9.240;2022-08-19T10:25:47;26.30;99.90
22852;DHT22;11592;45.460;9.240;2022-08-19T10:28:14;26.50;99.90
22852;DHT22;11592;45.460;9.240;2022-08-19T10:30:45;26.60;99.90
22852;DHT22;11592;45.460;9.240;2022-08-19T10:33:11;26.90;99.90
22852;DHT22;11592;45.460;9.240;2022-08-19T10:35:39;27.10;99.90
22852;DHT22;11592;45.460;9.240;2022-08-19T10:38:21;27.20;99.90
22852;DHT22;11592;45.460;9.240;2022-08-19T10:41:05;27.20;99.90
22852;DHT22;11592;45.460;9.240;2022-08-19T10:43:33;27.00;99.90
22852;DHT22;11592;45.460;9.240;2022-08-19T10:46:04;27.20;99.90
22852;DHT22;11592;45.460;9.240;2022-08-19T10:48:40;27.40;99.90
22852;DHT22;11592;45.460;9.240;2022-08-19T10:51:07;27.70;99.90
22852;DHT22;11592;45.460;9.240;2022-08-19T10:53:53;27.90;99.90
22852;DHT22;11592;45.460;9.240;2022-08-19T10:56:20;28.00;99.90
22852;DHT22;11592;45.460;9.240;2022-08-19T10:59:06;28.20;99.90
22852;DHT22;11592;45.460;9.240;2022-08-19T11:01:34;28.20;99.90
22852;DHT22;11592;45.460;9.240;2022-08-19T11:04:02;28.30;99.90
22852;DHT22;11592;45.460;9.240;2022-08-19T11:06:31;28.60;99.90
22852;DHT22;11592;45.460;9.240;2022-08-19T11:08:58;29.00;99.90
22852;DHT22;11592;45.460;9.240;2022-08-19T11:11:26;29.40;99.90
22852;DHT22;11592;45.460;9.240;2022-08-19T11:13:54;29.80;99.90
22852;DHT22;11592;45.460;9.240;2022-08-19T11:16:24;29.90;99.90
22852;DHT22;11592;45.460;9.240;2022-08-19T11:18:54;30.20;99.90
22852;DHT22;11592;45.460;9.240;2022-08-19T11:21:33;30.30;99.90
22852;DHT22;11592;45.460;9.240;2022-08-19T11:24:03;30.20;99.90
22852;DHT22;11592;45.460;9.240;2022-08-19T11:26:30;29.90;99.90
22852;DHT22;11592;45.460;9.240;2022-08-19T11:28:59;29.60;99.90
22852;DHT22;11592;45.460;9.240;2022-08-19T11:31:29;29.30;99.90
22852;DHT22;11592;45.460;9.240;2022-08-19T11:34:02;29.30;99.90
22852;DHT22;11592;45.460;9.240;2022-08-19T11:36:30;29.00;99.90
22852;DHT22;11592;45.460;9.240;2022-08-19T11:39:00;28.90;99.90
22852;DHT22;11592;45.460;9.240;2022-08-19T11:41:27;28.90;99.90
22852;DHT22;11592;45.460;9.240;2022-08-19T11:43:54;29.00;99.90
22852;DHT22;11592;45.460;9.240;2022-08-19T11:46:23;29.40;99.90
22852;DHT22;11592;45.460;9.240;2022-08-19T11:48:50;29.60;99.90
22852;DHT22;11592;45.460;9.240;2022-08-19T11:51:20;29.40;99.90
22852;DHT22;11592;45.460;9.240;2022-08-19T11:53:49;29.00;99.90
22852;DHT22;11592;45.460;9.240;2022-08-19T11:56:18;28.70;99.90
22852;DHT22;11592;45.460;9.240;2022-08-19T11:58:45;28.10;99.90
22852;DHT22;11592;45.460;9.240;2022-08-19T12:01:14;27.90;99.90
22852;DHT22;11592;45.460;9.240;2022-08-19T12:03:46;27.80;99.90
22852;DHT22;11592;45.460;9.240;2022-08-19T12:06:18;27.90;99.90
22852;DHT22;11592;45.460;9.240;2022-08-19T12:08:46;28.20;99.90
22852;DHT22;11592;45.460;9.240;2022-08-19T12:11:14;27.90;99.90
22852;DHT22;11592;45.460;9.240;2022-08-19T12:13:42;27.60;99.90
22852;DHT22;11592;45.460;9.240;2022-08-19T12:16:15;26.80;99.90
22852;DHT22;11592;45.460;9.240;2022-08-19T12:18:43;27.30;99.90
22852;DHT22;11592;45.460;9.240;2022-08-19T12:21:17;27.60;99.90
22852;DHT22;11592;45.460;9.240;2022-08-19T12:23:44;27.50;99.90
22852;DHT22;11592;45.460;9.240;2022-08-19T12:26:11;28.10;99.90
22852;DHT22;11592;45.460;9.240;2022-08-19T12:28:38;28.90;99.90
22852;DHT22;11592;45.460;9.240;2022-08-19T12:31:05;29.60;99.90
22852;DHT22;11592;45.460;9.240;2022-08-19T12:33:32;30.10;99.90
22852;DHT22;11592;45.460;9.240;2022-08-19T12:36:03;30.70;99.90
22852;DHT22;11592;45.460;9.240;2022-08-19T12:38:30;31.40;99.90
22852;DHT22;11592;45.460;9.240;2022-08-19T12:40:56;31.00;99.90
22852;DHT22;11592;45.460;9.240;2022-08-19T12:43:26;31.10;99.90
22852;DHT22;11592;45.460;9.240;2022-08-19T12:45:53;32.10;99.80
22852;DHT22;11592;45.460;9.240;2022-08-19T12:48:21;33.10;98.70
22852;DHT22;11592;45.460;9.240;2022-08-19T12:51:06;33.20;98.00
22852;DHT22;11592;45.460;9.240;2022-08-19T12:53:33;33.50;97.00
22852;DHT22;11592;45.460;9.240;2022-08-19T12:56:05;33.80;96.40
22852;DHT22;11592;45.460;9.240;2022-08-19T12:58:38;34.30;95.70
22852;DHT22;11592;45.460;9.240;2022-08-19T13:01:13;34.90;94.60
22852;DHT22;11592;45.460;9.240;2022-08-19T13:03:45;34.90;93.40
22852;DHT22;11592;45.460;9.240;2022-08-19T13:06:12;34.70;94.50
22852;DHT22;11592;45.460;9.240;2022-08-19T13:08:44;35.00;93.40
22852;DHT22;11592;45.460;9.240;2022-08-19T13:11:14;36.10;93.60
22852;DHT22;11592;45.460;9.240;2022-08-19T13:13:45;37.40;91.20
22852;DHT22;11592;45.460;9.240;2022-08-19T13:16:13;37.60;90.20
22852;DHT22;11592;45.460;9.240;2022-08-19T13:18:42;38.10;87.20
22852;DHT22;11592;45.460;9.240;2022-08-19T13:21:10;38.40;85.30
22852;DHT22;11592;45.460;9.240;2022-08-19T13:23:41;38.40;85.90
22852;DHT22;11592;45.460;9.240;2022-08-19T13:26:09;37.80;84.90
22852;DHT22;11592;45.460;9.240;2022-08-19T13:28:36;37.30;87.40
22852;DHT22;11592;45.460;9.240;2022-08-19T13:31:23;38.20;85.80
22852;DHT22;11592;45.460;9.240;2022-08-19T13:34:09;38.20;84.70
22852;DHT22;11592;45.460;9.240;2022-08-19T13:36:37;38.80;85.20
22852;DHT22;11592;45.460;9.240;2022-08-19T13:39:05;40.00;79.80
22852;DHT22;11592;45.460;9.240;2022-08-19T13:41:34;40.50;75.60
22852;DHT22;11592;45.460;9.240;2022-08-19T13:44:01;39.20;76.20
22852;DHT22;11592;45.460;9.240;2022-08-19T13:46:28;38.40;80.00
22852;DHT22;11592;45.460;9.240;2022-08-19T13:48:56;36.10;82.70
22852;DHT22;11592;45.460;9.240;2022-08-19T13:51:23;34.80;85.80
22852;DHT22;11592;45.460;9.240;2022-08-19T13:53:50;33.60;89.30
22852;DHT22;11592;45.460;9.240;2022-08-19T13:56:19;33.20;91.20
22852;DHT22;11592;45.460;9.240;2022-08-19T13:58:51;33.10;91.70
22852;DHT22;11592;45.460;9.240;2022-08-19T14:01:23;33.60;92.40
22852;DHT22;11592;45.460;9.240;2022-08-19T14:03:50;34.80;90.90
22852;DHT22;11592;45.460;9.240;2022-08-19T14:06:18;36.50;89.60
22852;DHT22;11592;45.460;9.240;2022-08-19T14:08:46;37.60;86.10
22852;DHT22;11592;45.460;9.240;2022-08-19T14:11:14;38.30;83.80
22852;DHT22;11592;45.460;9.240;2022-08-19T14:13:41;39.00;83.40
22852;DHT22;11592;45.460;9.240;2022-08-19T14:16:10;38.60;80.80
22852;DHT22;11592;45.460;9.240;2022-08-19T14:18:37;38.30;80.70
22852;DHT22;11592;45.460;9.240;2022-08-19T14:21:05;37.80;81.60
22852;DHT22;11592;45.460;9.240;2022-08-19T14:23:33;36.90;81.70
22852;DHT22;11592;45.460;9.240;2022-08-19T14:26:09;37.10;80.30
22852;DHT22;11592;45.460;9.240;2022-08-19T14:28:37;37.70;79.70
22852;DHT22;11592;45.460;9.240;2022-08-19T14:31:04;38.10;78.70
22852;DHT22;11592;45.460;9.240;2022-08-19T14:33:31;38.20;78.70
22852;DHT22;11592;45.460;9.240;2022-08-19T14:35:59;37.80;78.70
22852;DHT22;11592;45.460;9.240;2022-08-19T14:38:26;37.20;80.90
22852;DHT22;11592;45.460;9.240;2022-08-19T14:41:09;36.50;82.70
22852;DHT22;11592;45.460;9.240;2022-08-19T14:43:36;36.50;84.50
22852;DHT22;11592;45.460;9.240;2022-08-19T14:46:04;36.30;83.70
22852;DHT22;11592;45.460;9.240;2022-08-19T14:48:31;36.10;83.00
22852;DHT22;11592;45.460;9.240;2022-08-19T14:50:57;36.20;82.70
22852;DHT22;11592;45.460;9.240;2022-08-19T14:53:24;36.30;82.10
22852;DHT22;11592;45.460;9.240;2022-08-19T14:55:52;36.00;81.90
22852;DHT22;11592;45.460;9.240;2022-08-19T14:58:19;35.70;81.00
22852;DHT22;11592;45.460;9.240;2022-08-19T15:00:58;35.20;80.60
22852;DHT22;11592;45.460;9.240;2022-08-19T15:03:25;34.60;81.80
22852;DHT22;11592;45.460;9.240;2022-08-19T15:05:52;33.90;79.80
22852;DHT22;11592;45.460;9.240;2022-08-19T15:08:19;33.40;78.70
22852;DHT22;11592;45.460;9.240;2022-08-19T15:10:48;33.10;79.00
22852;DHT22;11592;45.460;9.240;2022-08-19T15:13:15;32.70;78.60
22852;DHT22;11592;45.460;9.240;2022-08-19T15:15:42;32.30;78.60
22852;DHT22;11592;45.460;9.240;2022-08-19T15:18:09;32.10;79.00
22852;DHT22;11592;45.460;9.240;2022-08-19T15:20:37;32.00;79.60
22852;DHT22;11592;45.460;9.240;2022-08-19T15:23:07;31.70;79.60
22852;DHT22;11592;45.460;9.240;2022-08-19T15:25:34;31.50;79.80
22852;DHT22;11592;45.460;9.240;2022-08-19T15:28:02;31.40;79.90
22852;DHT22;11592;45.460;9.240;2022-08-19T15:30:29;31.30;80.50
22852;DHT22;11592;45.460;9.240;2022-08-19T15:32:57;31.20;80.70
22852;DHT22;11592;45.460;9.240;2022-08-19T15:35:24;31.00;81.20
22852;DHT22;11592;45.460;9.240;2022-08-19T15:37:52;31.00;81.20
22852;DHT22;11592;45.460;9.240;2022-08-19T15:40:21;30.90;81.00
22852;DHT22;11592;45.460;9.240;2022-08-19T15:42:48;30.60;80.60
22852;DHT22;11592;45.460;9.240;2022-08-19T15:45:17;30.50;81.40
22852;DHT22;11592;45.460;9.240;2022-08-19T15:47:44;30.50;81.80
22852;DHT22;11592;45.460;9.240;2022-08-19T15:50:15;30.50;83.00
22852;DHT22;11592;45.460;9.240;2022-08-19T15:52:51;30.50;85.70
22852;DHT22;11592;45.460;9.240;2022-08-19T15:55:25;30.80;84.10
22852;DHT22;11592;45.460;9.240;2022-08-19T16:00:59;32.50;84.10
22852;DHT22;11592;45.460;9.240;2022-08-19T16:03:48;33.50;78.00
22852;DHT22;11592;45.460;9.240;2022-08-19T16:06:47;34.10;76.30
22852;DHT22;11592;45.460;9.240;2022-08-19T16:09:15;34.60;77.70
22852;DHT22;11592;45.460;9.240;2022-08-19T16:11:43;34.80;76.00
22852;DHT22;11592;45.460;9.240;2022-08-19T16:14:13;34.60;77.70
22852;DHT22;11592;45.460;9.240;2022-08-19T16:16:41;34.20;76.60
22852;DHT22;11592;45.460;9.240;2022-08-19T16:19:08;33.60;75.70
22852;DHT22;11592;45.460;9.240;2022-08-19T16:21:37;32.90;77.50
22852;DHT22;11592;45.460;9.240;2022-08-19T16:24:10;32.60;80.50
22852;DHT22;11592;45.460;9.240;2022-08-19T16:26:39;32.60;78.70
22852;DHT22;11592;45.460;9.240;2022-08-19T16:29:07;32.40;79.50
22852;DHT22;11592;45.460;9.240;2022-08-19T16:31:41;32.00;79.80
22852;DHT22;11592;45.460;9.240;2022-08-19T16:34:09;31.90;81.30
22852;DHT22;11592;45.460;9.240;2022-08-19T16:36:36;31.90;81.00
22852;DHT22;11592;45.460;9.240;2022-08-19T16:39:15;32.10;81.00
22852;DHT22;11592;45.460;9.240;2022-08-19T16:41:44;32.10;81.50
22852;DHT22;11592;45.460;9.240;2022-08-19T16:44:13;32.10;82.80
22852;DHT22;11592;45.460;9.240;2022-08-19T16:46:40;32.10;82.40
22852;DHT22;11592;45.460;9.240;2022-08-19T16:49:08;32.00;82.50